sensor_id;sensor_type;location;lat;lon;timestamp;temperature;humidity
4759;DHT22;2393;50.560;12.636;2023-02-24T00:00:19;8.10;99.90
4759;DHT22;2393;50.560;12.636;2023-02-24T00:02:59;8.10;99.90
4759;DHT22;2393;50.560;12.636;2023-02-24T00:05:36;8.10;99.90
4759;DHT22;2393;50.560;12.636;2023-02-24T00:08:05;8.10;99.90
4759;DHT22;2393;50.560;12.636;2023-02-24T00:10:33;8.10;99.90
4759;DHT22;2393;50.560;12.636;2023-02-24T00:13:04;8.00;99.90
4759;DHT22;2393;50.560;12.636;2023-02-24T00:15:33;8.10;99.90
4759;DHT22;2393;50.560;12.636;2023-02-24T00:18:01;8.00;99.90
4759;DHT22;2393;50.560;12.636;2023-02-24T00:20:33;8.00;99.90
4759;DHT22;2393;50.560;12.636;2023-02-24T00:23:01;8.00;99.90
4759;DHT22;2393;50.560;12.636;2023-02-24T00:25:30;7.90;99.90
4759;DHT22;2393;50.560;12.636;2023-02-24T00:27:58;7.90;99.90
4759;DHT22;2393;50.560;12.636;2023-02-24T00:30:28;7.90;99.90
4759;DHT22;2393;50.560;12.636;2023-02-24T00:32:59;7.90;99.90
4759;DHT22;2393;50.560;12.636;2023-02-24T00:35:29;7.90;99.90
4759;DHT22;2393;50.560;12.636;2023-02-24T00:37:58;7.90;99.90
4759;DHT22;2393;50.560;12.636;2023-02-24T00:40:28;7.90;99.90
4759;DHT22;2393;50.560;12.636;2023-02-24T00:42:58;7.90;99.90
4759;DHT22;2393;50.560;12.636;2023-02-24T00:45:28;7.90;99.90
4759;DHT22;2393;50.560;12.636;2023-02-24T00:47:59;7.90;99.90
4759;DHT22;2393;50.560;12.636;2023-02-24T00:50:30;7.80;99.90
4759;DHT22;2393;50.560;12.636;2023-02-24T00:52:58;7.70;99.90
4759;DHT22;2393;50.560;12.636;2023-02-24T00:55:26;7.70;99.90
4759;DHT22;2393;50.560;12.636;2023-02-24T00:58:02;7.70;99.90
4759;DHT22;2393;50.560;12.636;2023-02-24T01:00:34;7.70;99.90
4759;DHT22;2393;50.560;12.636;2023-02-24T01:03:04;7.70;99.90
4759;DHT22;2393;50.560;12.636;2023-02-24T01:05:35;7.70;99.90
4759;DHT22;2393;50.560;12.636;2023-02-24T01:08:03;7.60;99.90
4759;DHT22;2393;50.560;12.636;2023-02-24T01:10:31;7.70;99.90
4759;DHT22;2393;50.560;12.636;2023-02-24T01:13:00;7.70;99.90
4759;DHT22;2393;50.560;12.636;2023-02-24T01:15:27;7.70;99.90
4759;DHT22;2393;50.560;12.636;2023-02-24T01:17:56;7.70;99.90
4759;DHT22;2393;50.560;12.636;2023-02-24T01:20:24;7.70;99.90
4759;DHT22;2393;50.560;12.636;2023-02-24T01:22:56;7.70;99.90
4759;DHT22;2393;50.560;12.636;2023-02-24T01:25:24;7.70;99.90
4759;DHT22;2393;50.560;12.636;2023-02-24T01:27:57;7.60;99.90
4759;DHT22;2393;50.560;12.636;2023-02-24T01:30:26;7.60;99.90
4759;DHT22;2393;50.560;12.636;2023-02-24T01:32:57;7.60;99.90
4759;DHT22;2393;50.560;12.636;2023-02-24T01:35:27;7.60;99.90
4759;DHT22;2393;50.560;12.636;2023-02-24T01:37:57;7.60;99.90
4759;DHT22;2393;50.560;12.636;2023-02-24T01:40:27;7.60;99.90
4759;DHT22;2393;50.560;12.636;2023-02-24T01:42:55;7.60;99.90
4759;DHT22;2393;50.560;12.636;2023-02-24T01:45:26;7.60;99.90
4759;DHT22;2393;50.560;12.636;2023-02-24T01:47:59;7.60;99.90
4759;DHT22;2393;50.560;12.636;2023-02-24T01:50:33;7.60;99.90
4759;DHT22;2393;50.560;12.636;2023-02-24T01:53:05;7.60;99.90
4759;DHT22;2393;50.560;12.636;2023-02-24T01:55:37;7.50;99.90
4759;DHT22;2393;50.560;12.636;2023-02-24T01:58:21;7.60;99.90
4759;DHT22;2393;50.560;12.636;2023-02-24T02:00:50;7.50;99.90
4759;DHT22;2393;50.560;12.636;2023-02-24T02:03:24;7.50;99.90
4759;DHT22;2393;50.560;12.636;2023-02-24T02:05:57;7.50;99.90
4759;DHT22;2393;50.560;12.636;2023-02-24T02:08:27;7.50;99.90
4759;DHT22;2393;50.560;12.636;2023-02-24T02:10:59;7.50;99.90
4759;DHT22;2393;50.560;12.636;2023-02-24T02:13:33;7.50;99.90
4759;DHT22;2393;50.560;12.636;2023-02-24T02:16:29;7.50;99.90
4759;DHT22;2393;50.560;12.636;2023-02-24T02:19:15;7.50;99.90
4759;DHT22;2393;50.560;12.636;2023-02-24T02:21:59;7.40;99.90
4759;DHT22;2393;50.560;12.636;2023-02-24T02:24:40;7.30;99.90
4759;DHT22;2393;50.560;12.636;2023-02-24T02:33:50;7.30;99.90
4759;DHT22;2393;50.560;12.636;2023-02-24T02:36:27;7.30;99.90
4759;DHT22;2393;50.560;12.636;2023-02-24T02:39:02;7.30;99.90
4759;DHT22;2393;50.560;12.636;2023-02-24T02:41:43;7.30;99.90
4759;DHT22;2393;50.560;12.636;2023-02-24T02:44:19;7.30;99.90
4759;DHT22;2393;50.560;12.636;2023-02-24T02:46:52;7.30;99.90
4759;DHT22;2393;50.560;12.636;2023-02-24T02:49:26;7.30;99.90
4759;DHT22;2393;50.560;12.636;2023-02-24T02:52:03;7.30;99.90
4759;DHT22;2393;50.560;12.636;2023-02-24T02:54:38;7.30;99.90
4759;DHT22;2393;50.560;12.636;2023-02-24T02:57:16;7.30;99.90
4759;DHT22;2393;50.560;12.636;2023-02-24T02:59:50;7.30;99.90
4759;DHT22;2393;50.560;12.636;2023-02-24T03:02:23;7.30;99.90
4759;DHT22;2393;50.560;12.636;2023-02-24T03:05:00;7.30;99.90
4759;DHT22;2393;50.560;12.636;2023-02-24T03:07:33;7.20;99.90
4759;DHT22;2393;50.560;12.636;2023-02-24T03:10:09;7.20;99.90
4759;DHT22;2393;50.560;12.636;2023-02-24T03:12:46;7.20;99.90
4759;DHT22;2393;50.560;12.636;2023-02-24T03:15:18;7.20;99.90
4759;DHT22;2393;50.560;12.636;2023-02-24T03:17:52;7.10;99.90
4759;DHT22;2393;50.560;12.636;2023-02-24T03:20:28;7.00;99.90
4759;DHT22;2393;50.560;12.636;2023-02-24T03:23:01;7.00;99.90
4759;DHT22;2393;50.560;12.636;2023-02-24T03:25:35;6.90;99.90
4759;DHT22;2393;50.560;12.636;2023-02-24T03:28:12;7.00;99.90
4759;DHT22;2393;50.560;12.636;2023-02-24T03:30:44;6.90;99.90
4759;DHT22;2393;50.560;12.636;2023-02-24T03:33:20;6.90;99.90
4759;DHT22;2393;50.560;12.636;2023-02-24T03:35:51;6.90;99.90
4759;DHT22;2393;50.560;12.636;2023-02-24T03:38:19;6.90;99.90
4759;DHT22;2393;50.560;12.636;2023-02-24T03:40:50;6.90;99.90
4759;DHT22;2393;50.560;12.636;2023-02-24T03:43:26;6.90;99.90
4759;DHT22;2393;50.560;12.636;2023-02-24T03:45:58;6.90;99.90
4759;DHT22;2393;50.560;12.636;2023-02-24T03:48:28;6.90;99.90
4759;DHT22;2393;50.560;12.636;2023-02-24T03:50:58;6.80;99.90
4759;DHT22;2393;50.560;12.636;2023-02-24T03:53:49;6.80;99.90
4759;DHT22;2393;50.560;12.636;2023-02-24T03:56:27;6.80;99.90
4759;DHT22;2393;50.560;12.636;2023-02-24T03:59:06;6.70;99.90
4759;DHT22;2393;50.560;12.636;2023-02-24T04:01:44;6.70;99.90
4759;DHT22;2393;50.560;12.636;2023-02-24T04:04:19;6.60;99.90
4759;DHT22;2393;50.560;12.636;2023-02-24T04:07:09;6.50;99.90
4759;DHT22;2393;50.560;12.636;2023-02-24T04:09:44;6.50;99.90
4759;DHT22;2393;50.560;12.636;2023-02-24T04:12:18;6.50;99.90
4759;DHT22;2393;50.560;12.636;2023-02-24T04:14:55;6.40;99.90
4759;DHT22;2393;50.560;12.636;2023-02-24T04:17:28;6.30;99.90
4759;DHT22;2393;50.560;12.636;2023-02-24T04:20:02;6.30;99.90
4759;DHT22;2393;50.560;12.636;2023-02-24T04:22:40;6.30;99.90
4759;DHT22;2393;50.560;12.636;2023-02-24T04:25:10;6.30;99.90
4759;DHT22;2393;50.560;12.636;2023-02-24T04:27:42;6.30;99.90
4759;DHT22;2393;50.560;12.636;2023-02-24T04:30:15;6.20;99.90
4759;DHT22;2393;50.560;12.636;2023-02-24T04:32:43;6.30;99.90
4759;DHT22;2393;50.560;12.636;2023-02-24T04:35:14;6.30;99.90
4759;DHT22;2393;50.560;12.636;2023-02-24T04:37:48;6.30;99.90
4759;DHT22;2393;50.560;12.636;2023-02-24T04:40:18;6.30;99.90
4759;DHT22;2393;50.560;12.636;2023-02-24T04:42:48;6.30;99.90
4759;DHT22;2393;50.560;12.636;2023-02-24T04:45:19;6.20;99.90
4759;DHT22;2393;50.560;12.636;2023-02-24T04:47:49;6.20;99.90
4759;DHT22;2393;50.560;12.636;2023-02-24T04:50:23;6.20;99.90
4759;DHT22;2393;50.560;12.636;2023-02-24T04:52:55;6.20;99.90
4759;DHT22;2393;50.560;12.636;2023-02-24T04:55:24;6.20;99.90
4759;DHT22;2393;50.560;12.636;2023-02-24T04:57:55;6.20;99.90
4759;DHT22;2393;50.560;12.636;2023-02-24T05:00:25;6.20;99.90
4759;DHT22;2393;50.560;12.636;2023-02-24T05:02:55;6.20;99.90
4759;DHT22;2393;50.560;12.636;2023-02-24T05:05:24;6.20;99.90
4759;DHT22;2393;50.560;12.636;2023-02-24T05:07:57;6.20;99.90
4759;DHT22;2393;50.560;12.636;2023-02-24T05:10:29;6.30;99.90
4759;DHT22;2393;50.560;12.636;2023-02-24T05:12:59;6.20;99.90
4759;DHT22;2393;50.560;12.636;2023-02-24T05:15:29;6.30;99.90
4759;DHT22;2393;50.560;12.636;2023-02-24T05:17:59;6.30;99.90
4759;DHT22;2393;50.560;12.636;2023-02-24T05:20:27;6.30;99.90
4759;DHT22;2393;50.560;12.636;2023-02-24T05:23:14;6.20;99.90
4759;DHT22;2393;50.560;12.636;2023-02-24T05:25:43;6.20;99.90
4759;DHT22;2393;50.560;12.636;2023-02-24T05:28:11;6.20;99.90
4759;DHT22;2393;50.560;12.636;2023-02-24T05:30:39;6.20;99.90
4759;DHT22;2393;50.560;12.636;2023-02-24T05:33:07;6.20;99.90
4759;DHT22;2393;50.560;12.636;2023-02-24T05:35:36;6.20;99.90
4759;DHT22;2393;50.560;12.636;2023-02-24T05:38:04;6.20;99.90
4759;DHT22;2393;50.560;12.636;2023-02-24T05:40:35;6.20;99.90
4759;DHT22;2393;50.560;12.636;2023-02-24T05:43:11;6.20;99.90
4759;DHT22;2393;50.560;12.636;2023-02-24T05:45:44;6.20;99.90
4759;DHT22;2393;50.560;12.636;2023-02-24T05:48:12;6.20;99.90
4759;DHT22;2393;50.560;12.636;2023-02-24T05:50:41;6.20;99.90
4759;DHT22;2393;50.560;12.636;2023-02-24T05:53:12;6.20;99.90
4759;DHT22;2393;50.560;12.636;2023-02-24T05:55:41;6.20;99.90
4759;DHT22;2393;50.560;12.636;2023-02-24T05:58:10;6.20;99.90
4759;DHT22;2393;50.560;12.636;2023-02-24T06:00:39;6.20;99.90
4759;DHT22;2393;50.560;12.636;2023-02-24T06:03:12;6.20;99.90
4759;DHT22;2393;50.560;12.636;2023-02-24T06:05:43;6.10;99.90
4759;DHT22;2393;50.560;12.636;2023-02-24T06:08:19;6.10;99.90
4759;DHT22;2393;50.560;12.636;2023-02-24T06:10:51;6.10;99.90
4759;DHT22;2393;50.560;12.636;2023-02-24T06:13:19;6.10;99.90
4759;DHT22;2393;50.560;12.636;2023-02-24T06:15:47;6.00;99.90
4759;DHT22;2393;50.560;12.636;2023-02-24T06:18:21;6.00;99.90
4759;DHT22;2393;50.560;12.636;2023-02-24T06:20:49;6.00;99.90
4759;DHT22;2393;50.560;12.636;2023-02-24T06:23:17;6.00;99.90
4759;DHT22;2393;50.560;12.636;2023-02-24T06:25:45;5.90;99.90
4759;DHT22;2393;50.560;12.636;2023-02-24T06:28:15;5.90;99.90
4759;DHT22;2393;50.560;12.636;2023-02-24T06:30:45;5.90;99.90
4759;DHT22;2393;50.560;12.636;2023-02-24T06:33:13;5.80;99.90
4759;DHT22;2393;50.560;12.636;2023-02-24T06:35:41;5.80;99.90
4759;DHT22;2393;50.560;12.636;2023-02-24T06:38:10;5.70;99.90
4759;DHT22;2393;50.560;12.636;2023-02-24T06:40:38;5.70;99.90
4759;DHT22;2393;50.560;12.636;2023-02-24T06:43:08;5.70;99.90
4759;DHT22;2393;50.560;12.636;2023-02-24T06:45:39;5.70;99.90
4759;DHT22;2393;50.560;12.636;2023-02-24T06:48:07;5.80;99.90
4759;DHT22;2393;50.560;12.636;2023-02-24T06:50:36;5.70;99.90
4759;DHT22;2393;50.560;12.636;2023-02-24T06:53:07;5.70;99.90
4759;DHT22;2393;50.560;12.636;2023-02-24T06:55:42;5.70;99.90
4759;DHT22;2393;50.560;12.636;2023-02-24T06:58:16;5.70;99.90
4759;DHT22;2393;50.560;12.636;2023-02-24T07:00:45;5.70;99.90
4759;DHT22;2393;50.560;12.636;2023-02-24T07:03:24;5.70;99.90
4759;DHT22;2393;50.560;12.636;2023-02-24T07:06:06;5.70;99.90
4759;DHT22;2393;50.560;12.636;2023-02-24T07:08:46;5.70;99.90
4759;DHT22;2393;50.560;12.636;2023-02-24T07:11:14;5.80;99.90
4759;DHT22;2393;50.560;12.636;2023-02-24T07:13:46;5.80;99.90
4759;DHT22;2393;50.560;12.636;2023-02-24T07:16:17;5.80;99.90
4759;DHT22;2393;50.560;12.636;2023-02-24T07:18:46;5.80;99.90
4759;DHT22;2393;50.560;12.636;2023-02-24T07:21:15;5.80;99.90
4759;DHT22;2393;50.560;12.636;2023-02-24T07:23:47;5.70;99.90
4759;DHT22;2393;50.560;12.636;2023-02-24T07:26:17;5.70;99.90
4759;DHT22;2393;50.560;12.636;2023-02-24T07:28:46;5.80;99.90
4759;DHT22;2393;50.560;12.636;2023-02-24T07:31:17;5.70;99.90
4759;DHT22;2393;50.560;12.636;2023-02-24T07:33:47;5.80;99.90
4759;DHT22;2393;50.560;12.636;2023-02-24T07:36:17;5.80;99.90
4759;DHT22;2393;50.560;12.636;2023-02-24T07:38:51;5.80;99.90
4759;DHT22;2393;50.560;12.636;2023-02-24T07:41:21;5.80;99.90
4759;DHT22;2393;50.560;12.636;2023-02-24T07:43:49;5.80;99.90
4759;DHT22;2393;50.560;12.636;2023-02-24T07:46:23;5.80;99.90
4759;DHT22;2393;50.560;12.636;2023-02-24T07:48:52;5.80;99.90
4759;DHT22;2393;50.560;12.636;2023-02-24T07:51:21;5.90;99.90
4759;DHT22;2393;50.560;12.636;2023-02-24T07:53:51;5.90;99.90
4759;DHT22;2393;50.560;12.636;2023-02-24T07:56:21;5.90;99.90
4759;DHT22;2393;50.560;12.636;2023-02-24T07:58:53;5.90;99.90
4759;DHT22;2393;50.560;12.636;2023-02-24T08:01:27;5.90;99.90
4759;DHT22;2393;50.560;12.636;2023-02-24T08:03:56;5.90;99.90
4759;DHT22;2393;50.560;12.636;2023-02-24T08:06:31;5.90;99.90
4759;DHT22;2393;50.560;12.636;2023-02-24T08:09:05;5.80;99.90
4759;DHT22;2393;50.560;12.636;2023-02-24T08:11:45;5.80;99.90
4759;DHT22;2393;50.560;12.636;2023-02-24T08:14:14;5.70;99.90
4759;DHT22;2393;50.560;12.636;2023-02-24T08:16:44;5.80;99.90
4759;DHT22;2393;50.560;12.636;2023-02-24T08:19:14;5.80;99.90
4759;DHT22;2393;50.560;12.636;2023-02-24T08:21:47;5.80;99.90
4759;DHT22;2393;50.560;12.636;2023-02-24T08:24:18;5.80;99.90
4759;DHT22;2393;50.560;12.636;2023-02-24T08:26:50;5.80;99.90
4759;DHT22;2393;50.560;12.636;2023-02-24T08:29:30;5.80;99.90
4759;DHT22;2393;50.560;12.636;2023-02-24T08:32:07;5.70;99.90
4759;DHT22;2393;50.560;12.636;2023-02-24T08:34:36;5.70;99.90
4759;DHT22;2393;50.560;12.636;2023-02-24T08:37:05;5.80;99.90
4759;DHT22;2393;50.560;12.636;2023-02-24T08:39:33;5.90;99.90
4759;DHT22;2393;50.560;12.636;2023-02-24T08:42:02;6.00;99.90
4759;DHT22;2393;50.560;12.636;2023-02-24T08:44:30;6.00;99.90
4759;DHT22;2393;50.560;12.636;2023-02-24T08:47:00;6.10;99.90
4759;DHT22;2393;50.560;12.636;2023-02-24T08:49:32;6.10;99.90
4759;DHT22;2393;50.560;12.636;2023-02-24T08:52:00;6.00;99.90
4759;DHT22;2393;50.560;12.636;2023-02-24T08:54:31;6.10;99.90
4759;DHT22;2393;50.560;12.636;2023-02-24T08:56:59;6.10;99.90
4759;DHT22;2393;50.560;12.636;2023-02-24T08:59:35;6.10;99.90
4759;DHT22;2393;50.560;12.636;2023-02-24T09:02:15;6.10;99.90
4759;DHT22;2393;50.560;12.636;2023-02-24T09:04:53;6.10;99.90
4759;DHT22;2393;50.560;12.636;2023-02-24T09:07:23;6.10;99.90
4759;DHT22;2393;50.560;12.636;2023-02-24T09:09:52;6.20;99.90
4759;DHT22;2393;50.560;12.636;2023-02-24T09:12:23;6.30;99.90
4759;DHT22;2393;50.560;12.636;2023-02-24T09:14:56;6.40;99.90
4759;DHT22;2393;50.560;12.636;2023-02-24T09:17:28;6.60;99.90
4759;DHT22;2393;50.560;12.636;2023-02-24T09:20:19;6.60;99.90
4759;DHT22;2393;50.560;12.636;2023-02-24T09:23:05;6.60;99.90
4759;DHT22;2393;50.560;12.636;2023-02-24T09:25:36;6.60;99.90
4759;DHT22;2393;50.560;12.636;2023-02-24T09:28:12;6.60;99.90
4759;DHT22;2393;50.560;12.636;2023-02-24T09:30:45;6.50;99.90
4759;DHT22;2393;50.560;12.636;2023-02-24T09:33:25;6.50;99.90
4759;DHT22;2393;50.560;12.636;2023-02-24T09:35:57;6.50;99.90
4759;DHT22;2393;50.560;12.636;2023-02-24T09:38:37;6.60;99.90
4759;DHT22;2393;50.560;12.636;2023-02-24T09:41:31;6.70;99.90
4759;DHT22;2393;50.560;12.636;2023-02-24T09:44:13;6.80;99.90
4759;DHT22;2393;50.560;12.636;2023-02-24T09:46:47;6.90;99.90
4759;DHT22;2393;50.560;12.636;2023-02-24T09:49:22;7.00;99.90
4759;DHT22;2393;50.560;12.636;2023-02-24T09:51:53;7.10;99.90
4759;DHT22;2393;50.560;12.636;2023-02-24T09:54:30;7.20;99.90
4759;DHT22;2393;50.560;12.636;2023-02-24T09:57:03;7.20;99.90
4759;DHT22;2393;50.560;12.636;2023-02-24T09:59:46;7.30;99.90
4759;DHT22;2393;50.560;12.636;2023-02-24T10:02:38;7.30;99.90
4759;DHT22;2393;50.560;12.636;2023-02-24T10:05:21;7.30;99.90
4759;DHT22;2393;50.560;12.636;2023-02-24T10:07:56;7.40;99.90
4759;DHT22;2393;50.560;12.636;2023-02-24T10:10:29;7.50;99.90
4759;DHT22;2393;50.560;12.636;2023-02-24T10:13:06;7.60;99.90
4759;DHT22;2393;50.560;12.636;2023-02-24T10:15:42;7.90;99.90
4759;DHT22;2393;50.560;12.636;2023-02-24T10:18:30;8.10;99.90
4759;DHT22;2393;50.560;12.636;2023-02-24T10:21:05;8.10;99.90
4759;DHT22;2393;50.560;12.636;2023-02-24T10:23:55;8.20;99.90
4759;DHT22;2393;50.560;12.636;2023-02-24T10:26:31;8.20;99.90
4759;DHT22;2393;50.560;12.636;2023-02-24T10:29:34;8.30;99.90
4759;DHT22;2393;50.560;12.636;2023-02-24T10:32:17;8.30;99.90
4759;DHT22;2393;50.560;12.636;2023-02-24T10:34:50;8.20;99.90
4759;DHT22;2393;50.560;12.636;2023-02-24T10:37:19;8.20;99.90
4759;DHT22;2393;50.560;12.636;2023-02-24T10:39:58;8.10;99.90
4759;DHT22;2393;50.560;12.636;2023-02-24T10:42:28;8.10;99.90
4759;DHT22;2393;50.560;12.636;2023-02-24T10:45:09;8.00;99.90
4759;DHT22;2393;50.560;12.636;2023-02-24T10:47:49;7.80;99.90
4759;DHT22;2393;50.560;12.636;2023-02-24T10:50:25;7.60;99.90
4759;DHT22;2393;50.560;12.636;2023-02-24T10:53:02;7.40;99.90
4759;DHT22;2393;50.560;12.636;2023-02-24T10:56:04;7.30;99.90
4759;DHT22;2393;50.560;12.636;2023-02-24T10:59:01;7.00;99.90
4759;DHT22;2393;50.560;12.636;2023-02-24T11:02:18;6.80;99.90
4759;DHT22;2393;50.560;12.636;2023-02-24T11:04:56;6.60;99.90
4759;DHT22;2393;50.560;12.636;2023-02-24T11:08:09;6.40;99.90
4759;DHT22;2393;50.560;12.636;2023-02-24T11:10:42;6.20;99.90
4759;DHT22;2393;50.560;12.636;2023-02-24T11:13:25;6.20;99.90
4759;DHT22;2393;50.560;12.636;2023-02-24T11:16:11;6.10;99.90
4759;DHT22;2393;50.560;12.636;2023-02-24T11:18:57;5.90;99.90
4759;DHT22;2393;50.560;12.636;2023-02-24T11:21:26;5.80;99.90
4759;DHT22;2393;50.560;12.636;2023-02-24T11:23:56;5.80;99.90
4759;DHT22;2393;50.560;12.636;2023-02-24T11:26:31;5.80;99.90
4759;DHT22;2393;50.560;12.636;2023-02-24T11:29:22;6.00;99.90
4759;DHT22;2393;50.560;12.636;2023-02-24T11:32:09;6.10;99.90
4759;DHT22;2393;50.560;12.636;2023-02-24T11:34:47;6.30;99.90
4759;DHT22;2393;50.560;12.636;2023-02-24T11:37:28;6.50;99.90
4759;DHT22;2393;50.560;12.636;2023-02-24T11:40:02;6.50;99.90
4759;DHT22;2393;50.560;12.636;2023-02-24T11:42:36;6.60;99.90
4759;DHT22;2393;50.560;12.636;2023-02-24T11:45:14;6.70;99.90
4759;DHT22;2393;50.560;12.636;2023-02-24T11:47:52;7.00;99.90
4759;DHT22;2393;50.560;12.636;2023-02-24T11:50:36;7.30;99.90
4759;DHT22;2393;50.560;12.636;2023-02-24T11:53:17;7.50;99.90
4759;DHT22;2393;50.560;12.636;2023-02-24T11:55:50;7.70;99.90
4759;DHT22;2393;50.560;12.636;2023-02-24T11:58:23;7.90;99.90
4759;DHT22;2393;50.560;12.636;2023-02-24T12:01:00;8.10;99.90
4759;DHT22;2393;50.560;12.636;2023-02-24T12:03:36;8.20;99.90
4759;DHT22;2393;50.560;12.636;2023-02-24T12:06:13;8.30;99.90
4759;DHT22;2393;50.560;12.636;2023-02-24T12:08:44;8.50;99.90
4759;DHT22;2393;50.560;12.636;2023-02-24T12:11:21;8.70;99.90
4759;DHT22;2393;50.560;12.636;2023-02-24T12:13:57;8.70;99.90
4759;DHT22;2393;50.560;12.636;2023-02-24T12:16:31;8.80;99.90
4759;DHT22;2393;50.560;12.636;2023-02-24T12:19:05;8.80;99.90
4759;DHT22;2393;50.560;12.636;2023-02-24T12:21:41;8.80;99.90
4759;DHT22;2393;50.560;12.636;2023-02-24T12:24:12;8.80;99.90
4759;DHT22;2393;50.560;12.636;2023-02-24T12:26:51;8.70;99.90
4759;DHT22;2393;50.560;12.636;2023-02-24T12:29:34;8.60;99.90
4759;DHT22;2393;50.560;12.636;2023-02-24T12:32:18;8.40;99.90
4759;DHT22;2393;50.560;12.636;2023-02-24T12:34:55;8.20;99.90
4759;DHT22;2393;50.560;12.636;2023-02-24T12:37:47;8.00;99.90
4759;DHT22;2393;50.560;12.636;2023-02-24T12:40:25;7.90;99.90
4759;DHT22;2393;50.560;12.636;2023-02-24T12:43:04;7.70;99.90
4759;DHT22;2393;50.560;12.636;2023-02-24T12:45:46;7.60;99.90
4759;DHT22;2393;50.560;12.636;2023-02-24T12:48:33;7.50;99.90
4759;DHT22;2393;50.560;12.636;2023-02-24T12:51:12;7.50;99.90
4759;DHT22;2393;50.560;12.636;2023-02-24T12:53:47;7.30;99.90
4759;DHT22;2393;50.560;12.636;2023-02-24T12:56:22;7.30;99.90
4759;DHT22;2393;50.560;12.636;2023-02-24T12:58:55;7.20;99.90
4759;DHT22;2393;50.560;12.636;2023-02-24T13:01:27;7.10;99.90
4759;DHT22;2393;50.560;12.636;2023-02-24T13:04:13;7.10;99.90
4759;DHT22;2393;50.560;12.636;2023-02-24T13:06:54;7.20;99.90
4759;DHT22;2393;50.560;12.636;2023-02-24T13:09:31;7.20;99.90
4759;DHT22;2393;50.560;12.636;2023-02-24T13:12:07;7.20;99.90
4759;DHT22;2393;50.560;12.636;2023-02-24T13:14:40;7.20;99.90
4759;DHT22;2393;50.560;12.636;2023-02-24T13:17:18;7.20;99.90
4759;DHT22;2393;50.560;12.636;2023-02-24T13:19:49;7.20;99.90
4759;DHT22;2393;50.560;12.636;2023-02-24T13:22:22;7.20;99.90
4759;DHT22;2393;50.560;12.636;2023-02-24T13:25:00;7.20;99.90
4759;DHT22;2393;50.560;12.636;2023-02-24T13:27:32;7.20;99.90
4759;DHT22;2393;50.560;12.636;2023-02-24T13:30:05;7.20;99.90
4759;DHT22;2393;50.560;12.636;2023-02-24T13:32:35;7.10;99.90
4759;DHT22;2393;50.560;12.636;2023-02-24T13:35:29;7.10;99.90
4759;DHT22;2393;50.560;12.636;2023-02-24T13:38:07;7.00;99.90
4759;DHT22;2393;50.560;12.636;2023-02-24T13:40:36;7.00;99.90
4759;DHT22;2393;50.560;12.636;2023-02-24T13:43:04;7.00;99.90
4759;DHT22;2393;50.560;12.636;2023-02-24T13:45:55;7.00;99.90
4759;DHT22;2393;50.560;12.636;2023-02-24T13:48:40;6.90;99.90
4759;DHT22;2393;50.560;12.636;2023-02-24T13:51:45;6.90;99.90
4759;DHT22;2393;50.560;12.636;2023-02-24T13:54:27;6.90;99.90
4759;DHT22;2393;50.560;12.636;2023-02-24T13:57:05;6.80;99.90
4759;DHT22;2393;50.560;12.636;2023-02-24T13:59:49;6.70;99.90
4759;DHT22;2393;50.560;12.636;2023-02-24T14:02:26;6.70;99.90
4759;DHT22;2393;50.560;12.636;2023-02-24T14:04:57;6.60;99.90
4759;DHT22;2393;50.560;12.636;2023-02-24T14:07:31;6.60;99.90
4759;DHT22;2393;50.560;12.636;2023-02-24T14:10:02;6.60;99.90
4759;DHT22;2393;50.560;12.636;2023-02-24T14:12:33;6.60;99.90
4759;DHT22;2393;50.560;12.636;2023-02-24T14:15:03;6.60;99.90
4759;DHT22;2393;50.560;12.636;2023-02-24T14:17:34;6.60;99.90
4759;DHT22;2393;50.560;12.636;2023-02-24T14:20:17;6.50;99.90
4759;DHT22;2393;50.560;12.636;2023-02-24T14:22:48;6.50;99.90
4759;DHT22;2393;50.560;12.636;2023-02-24T14:25:20;6.50;99.90
4759;DHT22;2393;50.560;12.636;2023-02-24T14:27:50;6.50;99.90
4759;DHT22;2393;50.560;12.636;2023-02-24T14:30:25;6.50;99.90
4759;DHT22;2393;50.560;12.636;2023-02-24T14:32:54;6.40;99.90
4759;DHT22;2393;50.560;12.636;2023-02-24T14:35:30;6.40;99.90
4759;DHT22;2393;50.560;12.636;2023-02-24T14:38:00;6.50;99.90
4759;DHT22;2393;50.560;12.636;2023-02-24T14:40:29;6.50;99.90
4759;DHT22;2393;50.560;12.636;2023-02-24T14:42:57;6.50;99.90
4759;DHT22;2393;50.560;12.636;2023-02-24T14:45:27;6.60;99.90
4759;DHT22;2393;50.560;12.636;2023-02-24T14:47:56;6.60;99.90
4759;DHT22;2393;50.560;12.636;2023-02-24T14:50:27;6.50;99.90
4759;DHT22;2393;50.560;12.636;2023-02-24T14:52:59;6.50;99.90
4759;DHT22;2393;50.560;12.636;2023-02-24T14:55:31;6.50;99.90
4759;DHT22;2393;50.560;12.636;2023-02-24T14:58:04;6.50;99.90
4759;DHT22;2393;50.560;12.636;2023-02-24T15:00:36;6.50;99.90
4759;DHT22;2393;50.560;12.636;2023-02-24T15:03:10;6.40;99.90
4759;DHT22;2393;50.560;12.636;2023-02-24T15:05:41;6.50;99.90
4759;DHT22;2393;50.560;12.636;2023-02-24T15:08:25;6.50;99.90
4759;DHT22;2393;50.560;12.636;2023-02-24T15:10:53;6.50;99.90
4759;DHT22;2393;50.560;12.636;2023-02-24T15:13:28;6.50;99.90
4759;DHT22;2393;50.560;12.636;2023-02-24T15:16:04;6.50;99.90
4759;DHT22;2393;50.560;12.636;2023-02-24T15:18:34;6.40;99.90
4759;DHT22;2393;50.560;12.636;2023-02-24T15:21:04;6.50;99.90
4759;DHT22;2393;50.560;12.636;2023-02-24T15:23:36;6.40;99.90
4759;DHT22;2393;50.560;12.636;2023-02-24T15:26:05;6.40;99.90
4759;DHT22;2393;50.560;12.636;2023-02-24T15:28:35;6.40;99.90
4759;DHT22;2393;50.560;12.636;2023-02-24T15:31:06;6.40;99.90
4759;DHT22;2393;50.560;12.636;2023-02-24T15:33:39;6.30;99.90
4759;DHT22;2393;50.560;12.636;2023-02-24T15:36:10;6.30;99.90
4759;DHT22;2393;50.560;12.636;2023-02-24T15:38:41;6.30;99.90
4759;DHT22;2393;50.560;12.636;2023-02-24T15:41:12;6.30;99.90
4759;DHT22;2393;50.560;12.636;2023-02-24T15:43:45;6.20;99.90
4759;DHT22;2393;50.560;12.636;2023-02-24T15:46:18;6.20;99.90
4759;DHT22;2393;50.560;12.636;2023-02-24T15:48:49;6.20;99.90
4759;DHT22;2393;50.560;12.636;2023-02-24T15:51:22;6.10;99.90
4759;DHT22;2393;50.560;12.636;2023-02-24T15:53:55;6.10;99.90
4759;DHT22;2393;50.560;12.636;2023-02-24T15:56:26;6.10;99.90
4759;DHT22;2393;50.560;12.636;2023-02-24T15:58:55;6.10;99.90
4759;DHT22;2393;50.560;12.636;2023-02-24T16:01:24;6.10;99.90
4759;DHT22;2393;50.560;12.636;2023-02-24T16:03:53;6.00;99.90
4759;DHT22;2393;50.560;12.636;2023-02-24T16:06:21;5.90;99.90
4759;DHT22;2393;50.560;12.636;2023-02-24T16:08:51;5.90;99.90
4759;DHT22;2393;50.560;12.636;2023-02-24T16:11:24;5.80;99.90
4759;DHT22;2393;50.560;12.636;2023-02-24T16:13:55;5.80;99.90
4759;DHT22;2393;50.560;12.636;2023-02-24T16:16:24;5.70;99.90
4759;DHT22;2393;50.560;12.636;2023-02-24T16:18:53;5.60;99.90
4759;DHT22;2393;50.560;12.636;2023-02-24T16:21:22;5.60;99.90
4759;DHT22;2393;50.560;12.636;2023-02-24T16:23:50;5.60;99.90
4759;DHT22;2393;50.560;12.636;2023-02-24T16:26:22;5.50;99.90
4759;DHT22;2393;50.560;12.636;2023-02-24T16:28:53;5.50;99.90
4759;DHT22;2393;50.560;12.636;2023-02-24T16:31:21;5.50;99.90
4759;DHT22;2393;50.560;12.636;2023-02-24T16:33:50;5.50;99.90
4759;DHT22;2393;50.560;12.636;2023-02-24T16:36:22;5.40;99.90
4759;DHT22;2393;50.560;12.636;2023-02-24T16:38:51;5.40;99.90
4759;DHT22;2393;50.560;12.636;2023-02-24T16:41:19;5.20;99.90
4759;DHT22;2393;50.560;12.636;2023-02-24T16:43:49;5.10;99.90
4759;DHT22;2393;50.560;12.636;2023-02-24T16:46:18;4.90;99.90
4759;DHT22;2393;50.560;12.636;2023-02-24T16:48:49;4.80;99.90
4759;DHT22;2393;50.560;12.636;2023-02-24T16:51:19;4.60;99.90